Time;durP1;ratioP1;P1;durP2;ratioP2;P2;SDS_P1;SDS_P2;PMS_P1;PMS_P2;Temp;Humidity;BMP_temperature;BMP_pressure;BME280_temperature;BME280_humidity;BME280_pressure;Samples;Min_cycle;Max_cycle;Signal;HPM_P1;HPM_P2
2022/05/10 00:03:23;;;;;;;7.68;4.40;;;21.10;61.10;;;;;;10088082;28;20032;-66
2022/05/10 00:08:16;;;;;;;5.63;4.28;;;21.20;61.20;;;;;;10099250;28;20404;-66
2022/05/10 00:13:07;;;;;;;5.25;4.75;;;21.00;61.70;;;;;;10099445;28;20391;-67
2022/05/10 00:17:58;;;;;;;5.60;4.35;;;21.00;61.80;;;;;;10093741;28;20333;-66
2022/05/10 00:22:49;;;;;;;6.22;5.20;;;20.80;62.20;;;;;;10088912;28;20266;-64
2022/05/10 00:27:40;;;;;;;8.30;6.45;;;20.60;62.80;;;;;;10100586;28;20025;-65
2022/05/10 00:32:35;;;;;;;7.43;5.25;;;20.50;63.30;;;;;;10099294;28;20036;-65
2022/05/10 00:37:26;;;;;;;7.45;4.68;;;20.50;63.20;;;;;;10097063;28;20060;-67
2022/05/10 00:42:53;;;;;;;6.82;5.45;;;20.60;63.30;;;;;;10092090;28;20486;-67
2022/05/10 00:47:59;;;;;;;9.85;5.43;;;20.60;63.50;;;;;;10065774;28;20033;-66
2022/05/10 00:53:01;;;;;;;7.32;5.45;;;20.50;63.60;;;;;;10081317;28;20034;-66
2022/05/10 00:58:04;;;;;;;7.38;5.35;;;20.40;63.90;;;;;;10087933;28;20076;-67
2022/05/10 01:03:03;;;;;;;7.28;5.45;;;20.40;64.00;;;;;;10090106;28;20108;-67
2022/05/10 01:08:12;;;;;;;5.95;4.90;;;20.30;64.10;;;;;;10078421;28;20052;-65
2022/05/10 01:13:16;;;;;;;8.23;5.53;;;20.20;64.60;;;;;;10095084;28;20041;-65
2022/05/10 01:18:07;;;;;;;5.82;5.15;;;20.20;65.00;;;;;;10087032;28;20100;-66
2022/05/10 01:23:16;;;;;;;6.57;5.15;;;20.10;64.90;;;;;;10088706;28;20561;-65
2022/05/10 01:28:28;;;;;;;5.20;4.70;;;20.00;65.40;;;;;;10063435;28;20017;-66
2022/05/10 01:33:31;;;;;;;6.60;5.20;;;19.90;65.90;;;;;;10085439;28;20055;-66
2022/05/10 01:38:41;;;;;;;8.70;6.10;;;19.80;66.20;;;;;;10085258;28;20029;-67
2022/05/10 01:43:47;;;;;;;7.68;5.97;;;19.70;66.50;;;;;;10073905;28;20037;-65
2022/05/10 01:48:39;;;;;;;7.50;6.28;;;19.50;67.20;;;;;;10070796;28;20032;-66
2022/05/10 01:53:31;;;;;;;9.55;6.55;;;19.50;67.40;;;;;;10074406;28;20045;-65
2022/05/10 01:58:29;;;;;;;8.55;6.97;;;19.40;67.80;;;;;;10090649;28;20064;-67
2022/05/10 02:03:28;;;;;;;8.60;7.25;;;19.30;68.40;;;;;;10088376;28;20147;-69
2022/05/10 02:08:55;;;;;;;10.55;7.57;;;19.30;68.90;;;;;;10085011;28;20040;-68
2022/05/10 02:14:04;;;;;;;9.20;6.45;;;19.10;69.70;;;;;;10080204;28;20191;-68
2022/05/10 02:19:01;;;;;;;9.05;7.13;;;19.00;69.90;;;;;;10094596;28;20066;-67
2022/05/10 02:24:14;;;;;;;8.57;6.25;;;18.90;70.30;;;;;;10105062;28;20037;-65
2022/05/10 02:29:05;;;;;;;8.48;6.25;;;18.90;70.90;;;;;;10090301;28;20025;-66
2022/05/10 02:33:57;;;;;;;9.30;7.00;;;18.90;71.00;;;;;;10099652;28;20040;-67
2022/05/10 02:38:48;;;;;;;8.70;6.60;;;19.00;71.00;;;;;;10095413;28;20024;-68
2022/05/10 02:43:48;;;;;;;9.15;6.30;;;18.90;71.20;;;;;;10097735;28;20366;-67
2022/05/10 02:48:39;;;;;;;9.20;6.40;;;18.90;71.70;;;;;;10088812;28;20024;-67
2022/05/10 02:53:30;;;;;;;11.15;7.65;;;18.80;72.00;;;;;;10083990;28;20132;-68
2022/05/10 02:58:26;;;;;;;10.25;7.05;;;18.80;72.20;;;;;;10096806;28;20100;-68
2022/05/10 03:03:20;;;;;;;12.80;8.20;;;18.70;72.60;;;;;;10089505;28;20025;-67
2022/05/10 03:08:11;;;;;;;13.38;7.90;;;18.60;73.90;;;;;;10095973;28;20044;-65
2022/05/10 03:13:02;;;;;;;12.60;8.07;;;18.50;73.80;;;;;;10072166;28;20526;-67
2022/05/10 03:17:53;;;;;;;11.30;8.07;;;18.60;74.30;;;;;;10077729;28;20021;-67
2022/05/10 03:22:43;;;;;;;11.25;7.78;;;18.40;74.80;;;;;;10088425;28;20040;-66
2022/05/10 03:27:35;;;;;;;8.77;7.65;;;18.40;75.40;;;;;;10066302;28;20025;-65
2022/05/10 03:32:25;;;;;;;8.55;7.15;;;18.40;75.50;;;;;;10094843;28;20044;-65
2022/05/10 03:37:16;;;;;;;8.00;7.00;;;18.40;75.70;;;;;;10085557;28;20021;-67
2022/05/10 03:42:07;;;;;;;11.00;6.22;;;18.30;76.40;;;;;;10097597;28;20112;-66
2022/05/10 03:46:58;;;;;;;9.52;5.97;;;18.20;77.30;;;;;;10095879;28;20087;-66
2022/05/10 03:51:48;;;;;;;8.48;5.80;;;18.10;78.10;;;;;;10067569;28;20036;-65
2022/05/10 03:56:39;;;;;;;9.75;6.50;;;17.90;78.60;;;;;;10077215;28;20039;-67
2022/05/10 04:01:30;;;;;;;9.18;6.07;;;17.90;79.10;;;;;;10104820;28;20033;-67
2022/05/10 04:06:20;;;;;;;7.43;5.63;;;17.70;79.70;;;;;;10074059;28;20013;-66
2022/05/10 04:11:12;;;;;;;8.27;6.15;;;17.70;80.20;;;;;;10088021;28;20041;-66
2022/05/10 04:16:03;;;;;;;8.02;6.28;;;17.80;80.50;;;;;;10053261;28;20037;-66
2022/05/10 04:20:54;;;;;;;8.13;6.22;;;17.70;80.70;;;;;;10094088;28;20108;-66
2022/05/10 04:25:45;;;;;;;8.52;6.72;;;17.60;81.20;;;;;;10093896;28;20033;-68
2022/05/10 04:30:35;;;;;;;10.77;5.90;;;17.50;81.70;;;;;;10081710;28;20267;-66
2022/05/10 04:35:26;;;;;;;8.85;5.80;;;17.70;82.00;;;;;;10081212;28;20516;-66
2022/05/10 04:45:27;;;;;;;8.88;5.38;;;17.50;82.40;;;;;;10085871;28;20057;-65
2022/05/10 04:50:19;;;;;;;10.18;6.28;;;17.40;83.10;;;;;;10095238;28;20132;-67
2022/05/10 04:55:10;;;;;;;7.90;5.95;;;17.60;83.00;;;;;;10074439;28;20124;-67
2022/05/10 05:00:01;;;;;;;9.77;6.03;;;17.70;83.90;;;;;;10106342;28;20483;-66
2022/05/10 05:04:51;;;;;;;9.75;6.70;;;17.70;83.40;;;;;;10084126;28;20016;-67
2022/05/10 05:09:43;;;;;;;7.70;6.03;;;17.70;83.50;;;;;;10094215;28;20013;-65
2022/05/10 05:14:33;;;;;;;9.68;6.50;;;17.70;84.00;;;;;;10078754;28;20052;-66
2022/05/10 05:19:24;;;;;;;9.02;6.38;;;17.80;84.70;;;;;;10102695;28;20475;-65
2022/05/10 05:24:15;;;;;;;9.93;6.88;;;18.00;83.90;;;;;;10083398;28;20080;-66
2022/05/10 05:29:05;;;;;;;8.43;6.45;;;18.10;83.80;;;;;;10070169;28;20118;-65
2022/05/10 05:33:56;;;;;;;9.25;6.60;;;18.30;83.90;;;;;;10096955;28;20398;-67
2022/05/10 05:38:49;;;;;;;7.38;5.95;;;18.30;84.20;;;;;;10080175;28;20029;-68
2022/05/10 05:43:40;;;;;;;10.05;5.63;;;18.30;84.50;;;;;;10079420;28;20029;-67
2022/05/10 05:48:31;;;;;;;9.38;6.38;;;18.40;84.50;;;;;;10070127;28;20037;-66
2022/05/10 05:53:22;;;;;;;9.02;6.10;;;18.30;84.60;;;;;;10088844;28;20029;-66
2022/05/10 05:58:13;;;;;;;8.68;6.00;;;18.40;84.80;;;;;;10093583;28;20039;-66
2022/05/10 06:03:03;;;;;;;8.18;5.78;;;18.50;84.90;;;;;;10090333;28;20041;-68
2022/05/10 06:07:54;;;;;;;7.88;5.15;;;18.70;84.50;;;;;;10081087;28;20036;-65
2022/05/10 06:12:45;;;;;;;8.07;5.72;;;18.70;84.60;;;;;;10081955;28;20051;-65
2022/05/10 06:17:37;;;;;;;6.55;5.65;;;18.80;84.70;;;;;;10073597;28;20033;-64
2022/05/10 06:22:28;;;;;;;9.82;6.78;;;18.70;85.00;;;;;;10084076;28;20128;-65
2022/05/10 06:27:19;;;;;;;9.20;5.65;;;18.80;85.10;;;;;;10072141;28;20473;-66
2022/05/10 06:32:20;;;;;;;8.05;6.22;;;18.90;84.80;;;;;;10087726;28;20032;-66
2022/05/10 06:42:24;;;;;;;8.85;6.55;;;19.10;84.70;;;;;;10092465;28;20275;-64
2022/05/10 06:47:14;;;;;;;7.57;5.40;;;19.00;85.00;;;;;;10088555;28;20478;-63
2022/05/10 06:52:05;;;;;;;7.53;5.63;;;19.00;84.80;;;;;;10088631;28;20068;-62
2022/05/10 06:56:56;;;;;;;5.82;5.25;;;19.00;84.70;;;;;;10090238;28;20029;-63
2022/05/10 07:01:47;;;;;;;7.07;4.90;;;19.00;84.70;;;;;;10067893;28;20029;-68
2022/05/10 07:06:37;;;;;;;6.60;5.05;;;19.00;84.60;;;;;;10089132;28;20395;-65
2022/05/10 07:11:28;;;;;;;7.05;5.82;;;19.10;84.70;;;;;;10087163;28;20519;-67
2022/05/10 07:16:18;;;;;;;7.90;5.13;;;19.30;84.10;;;;;;10089442;28;20362;-65
2022/05/10 07:21:10;;;;;;;9.18;5.53;;;19.50;83.90;;;;;;10080805;28;20021;-63
2022/05/10 07:26:02;;;;;;;9.57;6.28;;;19.60;83.80;;;;;;10070066;28;20025;-64
2022/05/10 07:30:53;;;;;;;8.10;5.43;;;19.70;83.70;;;;;;10084043;28;20025;-65
2022/05/10 07:40:53;;;;;;;8.55;5.68;;;19.70;83.80;;;;;;10081933;28;20040;-63
2022/05/10 07:45:46;;;;;;;13.40;6.13;;;19.80;83.80;;;;;;10077806;28;20031;-66
2022/05/10 07:50:37;;;;;;;7.35;4.78;;;19.90;84.20;;;;;;10082759;28;20138;-66
2022/05/10 07:55:27;;;;;;;8.88;5.45;;;20.10;83.30;;;;;;10087021;28;20407;-66
2022/05/10 08:00:18;;;;;;;9.48;4.80;;;20.30;82.90;;;;;;10089977;28;20025;-66
2022/05/10 08:05:10;;;;;;;6.95;5.78;;;20.40;82.80;;;;;;10075150;28;20318;-68
2022/05/10 08:10:01;;;;;;;7.55;5.32;;;20.60;82.60;;;;;;10079793;28;20043;-67
2022/05/10 08:14:52;;;;;;;8.30;5.05;;;20.70;82.40;;;;;;10091679;28;20041;-68
2022/05/10 08:19:45;;;;;;;7.10;5.07;;;20.90;81.90;;;;;;10069855;28;20427;-68
2022/05/10 08:24:36;;;;;;;7.88;5.05;;;21.10;82.40;;;;;;10067578;28;20045;-68
2022/05/10 08:29:26;;;;;;;8.88;5.43;;;21.20;81.50;;;;;;10072979;28;20453;-66
2022/05/10 08:34:19;;;;;;;6.47;5.07;;;21.40;81.10;;;;;;10095234;28;20040;-68
2022/05/10 08:39:09;;;;;;;8.13;5.70;;;21.50;81.00;;;;;;10077271;28;20033;-66
2022/05/10 08:44:09;;;;;;;6.15;4.68;;;21.60;81.00;;;;;;10081400;28;20033;-69
2022/05/10 08:49:38;;;;;;;7.53;5.40;;;22.00;80.40;;;;;;10085649;28;20253;-62
2022/05/10 08:54:30;;;;;;;8.32;5.32;;;22.10;80.10;;;;;;10075920;28;20563;-68
2022/05/10 08:59:45;;;;;;;7.10;5.30;;;22.30;79.70;;;;;;10095988;28;20033;-68
2022/05/10 09:04:43;;;;;;;7.03;4.95;;;22.40;79.50;;;;;;10095641;28;20112;-68
2022/05/10 09:10:13;;;;;;;7.13;5.60;;;22.40;79.70;;;;;;10090925;28;20070;-67
2022/05/10 09:15:06;;;;;;;6.43;4.55;;;22.50;79.50;;;;;;9984896;28;20499;-67
2022/05/10 09:19:58;;;;;;;8.95;5.22;;;22.70;79.10;;;;;;10089040;28;20427;-67
2022/05/10 09:24:53;;;;;;;10.55;5.88;;;22.90;78.80;;;;;;10071466;28;20493;-67
2022/05/10 09:29:49;;;;;;;5.47;4.97;;;23.10;78.50;;;;;;10054794;28;20120;-67
2022/05/10 09:34:46;;;;;;;7.03;5.25;;;23.20;78.40;;;;;;10083346;28;20048;-64
2022/05/10 09:39:37;;;;;;;8.27;4.80;;;23.40;78.20;;;;;;10087122;28;20017;-67
2022/05/10 09:44:28;;;;;;;6.28;4.93;;;23.60;78.10;;;;;;10072715;28;20021;-65
2022/05/10 09:49:37;;;;;;;9.10;5.25;;;23.80;77.80;;;;;;10078855;28;20017;-65
2022/05/10 09:54:38;;;;;;;7.68;4.65;;;24.00;77.30;;;;;;10084213;28;20036;-63
2022/05/10 09:59:31;;;;;;;5.63;4.95;;;24.10;77.00;;;;;;10096816;28;20318;-64
2022/05/10 10:04:31;;;;;;;6.47;5.60;;;24.30;76.70;;;;;;10091014;28;20033;-64
2022/05/10 10:09:39;;;;;;;6.68;4.57;;;24.40;76.10;;;;;;10083090;28;20175;-66
2022/05/10 10:14:54;;;;;;;5.65;4.55;;;24.60;75.50;;;;;;10078351;28;20041;-65
2022/05/10 10:19:50;;;;;;;4.65;3.97;;;24.70;75.50;;;;;;10085278;28;20485;-63
2022/05/10 10:25:00;;;;;;;5.22;4.53;;;24.90;75.10;;;;;;10070838;28;20461;-66
2022/05/10 10:30:02;;;;;;;7.22;4.72;;;25.10;74.20;;;;;;10068886;28;20394;-65
2022/05/10 10:35:02;;;;;;;4.50;4.05;;;25.10;73.80;;;;;;10089019;28;20324;-64
2022/05/10 10:40:30;;;;;;;6.88;4.30;;;25.40;73.50;;;;;;10077075;28;20318;-65
2022/05/10 10:45:40;;;;;;;4.90;4.00;;;25.50;72.50;;;;;;10089333;28;20025;-64
2022/05/10 10:50:33;;;;;;;5.93;3.53;;;25.60;72.00;;;;;;10093790;28;20064;-66
2022/05/10 10:55:47;;;;;;;5.03;3.95;;;25.80;71.20;;;;;;10080107;28;20033;-66
2022/05/10 11:00:47;;;;;;;5.65;3.92;;;25.90;69.90;;;;;;10081715;28;20431;-62
2022/05/10 11:05:55;;;;;;;4.07;3.67;;;26.10;69.70;;;;;;10089633;28;20036;-67
2022/05/10 11:10:52;;;;;;;3.08;2.70;;;26.50;68.60;;;;;;10081108;28;20606;-65
2022/05/10 11:15:46;;;;;;;5.28;3.25;;;26.60;67.70;;;;;;10091183;28;20313;-65
2022/05/10 11:20:46;;;;;;;3.78;3.28;;;26.60;66.70;;;;;;10092119;28;20021;-63
2022/05/10 11:26:14;;;;;;;5.22;3.10;;;26.60;65.80;;;;;;10073814;28;20056;-66
2022/05/10 11:31:15;;;;;;;4.80;3.65;;;26.70;64.40;;;;;;10082156;28;20517;-67
2022/05/10 11:36:32;;;;;;;3.08;2.85;;;27.10;64.60;;;;;;10092757;28;20503;-64
2022/05/10 11:41:37;;;;;;;4.13;3.30;;;27.20;62.30;;;;;;10077277;28;20033;-64
2022/05/10 11:46:51;;;;;;;5.32;3.22;;;27.30;62.90;;;;;;10076120;28;20061;-64
2022/05/10 11:51:54;;;;;;;4.32;3.60;;;27.50;62.20;;;;;;10081908;28;20017;-63
2022/05/10 11:56:47;;;;;;;4.65;3.47;;;27.50;61.70;;;;;;10091208;28;20499;-63
2022/05/10 12:01:42;;;;;;;5.67;2.67;;;27.80;61.40;;;;;;10085489;28;20029;-65
2022/05/10 12:06:35;;;;;;;6.32;3.63;;;28.10;60.70;;;;;;10086499;28;20021;-62
2022/05/10 12:11:30;;;;;;;4.60;4.10;;;28.40;60.10;;;;;;10076967;28;20075;-64
2022/05/10 12:21:53;;;;;;;6.22;3.92;;;28.90;58.70;;;;;;10088830;28;20048;-65
2022/05/10 12:26:49;;;;;;;3.92;3.53;;;29.10;58.80;;;;;;10090719;28;20041;-65
2022/05/10 12:31:57;;;;;;;3.30;3.00;;;29.10;58.10;;;;;;10086849;28;20526;-66
2022/05/10 12:36:48;;;;;;;4.57;3.47;;;29.60;57.20;;;;;;10083847;28;20495;-66
2022/05/10 12:41:45;;;;;;;4.05;3.65;;;29.40;56.60;;;;;;10089323;28;20040;-65
2022/05/10 12:46:57;;;;;;;4.22;3.83;;;29.00;56.50;;;;;;10087164;28;20043;-63
2022/05/10 12:52:00;;;;;;;5.05;3.65;;;28.50;56.30;;;;;;10079554;28;20025;-66
2022/05/10 12:56:54;;;;;;;3.95;2.80;;;28.60;55.90;;;;;;10072673;28;20037;-65
2022/05/10 13:01:46;;;;;;;4.00;3.05;;;29.10;55.10;;;;;;10087868;28;20104;-63
2022/05/10 13:06:58;;;;;;;3.30;3.00;;;29.60;54.90;;;;;;10080035;28;20021;-65
2022/05/10 13:12:06;;;;;;;3.20;2.90;;;29.90;53.40;;;;;;10073211;28;20047;-64
2022/05/10 13:16:56;;;;;;;4.88;2.90;;;30.00;53.00;;;;;;10075587;28;20029;-62
2022/05/10 13:21:48;;;;;;;3.03;2.72;;;30.30;52.60;;;;;;10092977;28;20522;-63
2022/05/10 13:27:00;;;;;;;4.75;3.42;;;30.70;52.00;;;;;;10070339;28;20346;-64
2022/05/10 13:31:51;;;;;;;4.93;4.03;;;29.50;51.50;;;;;;10095939;28;20037;-65
2022/05/10 13:36:48;;;;;;;4.07;3.47;;;29.20;51.80;;;;;;10085194;28;20045;-65
2022/05/10 13:41:38;;;;;;;4.18;3.05;;;29.40;51.00;;;;;;10089028;28;20021;-65
2022/05/10 13:46:36;;;;;;;3.95;3.30;;;28.90;51.60;;;;;;10090040;28;20036;-63
2022/05/10 13:51:35;;;;;;;4.75;3.80;;;28.90;51.80;;;;;;10087190;28;20040;-63
2022/05/10 13:56:29;;;;;;;4.10;3.20;;;29.60;51.00;;;;;;10087765;28;20403;-61
2022/05/10 14:01:39;;;;;;;4.78;3.42;;;29.40;50.60;;;;;;10091398;28;20505;-66
2022/05/10 14:06:30;;;;;;;3.92;3.50;;;29.90;49.60;;;;;;10093291;28;20032;-63
2022/05/10 14:11:21;;;;;;;3.15;2.83;;;29.50;50.70;;;;;;10092039;28;20106;-64
2022/05/10 14:16:11;;;;;;;4.43;3.65;;;29.70;50.00;;;;;;10094408;28;20672;-64
2022/05/10 14:21:24;;;;;;;3.78;3.05;;;30.60;49.10;;;;;;10090840;28;20298;-64
2022/05/10 14:26:41;;;;;;;3.55;3.25;;;30.20;48.60;;;;;;10090780;28;20095;-63
2022/05/10 14:31:35;;;;;;;3.90;3.55;;;30.00;48.60;;;;;;10093207;28;20111;-64
2022/05/10 14:36:40;;;;;;;3.95;3.13;;;31.40;48.10;;;;;;10093202;28;20083;-64
2022/05/10 14:41:43;;;;;;;6.20;2.90;;;32.50;46.90;;;;;;10088098;28;20115;-63
2022/05/10 14:46:34;;;;;;;;;;;32.90;46.20;;;;;;10091347;28;20495;-64
2022/05/10 14:51:44;;;;;;;4.30;3.30;;;31.50;47.10;;;;;;10093290;28;20030;-63
2022/05/10 14:56:37;;;;;;;5.43;3.40;;;30.60;47.80;;;;;;10087981;28;20284;-65
2022/05/10 15:01:35;;;;;;;5.07;4.43;;;29.90;48.60;;;;;;10088020;28;20027;-63
2022/05/10 15:06:26;;;;;;;4.03;3.63;;;29.30;48.60;;;;;;10091589;28;20025;-63
2022/05/10 15:11:16;;;;;;;5.25;3.17;;;29.10;48.40;;;;;;10090164;28;20480;-67
2022/05/10 15:16:07;;;;;;;4.75;3.50;;;28.70;48.40;;;;;;10088868;28;20029;-67
2022/05/10 15:20:58;;;;;;;7.68;3.30;;;28.60;48.40;;;;;;10088068;28;20108;-67
2022/05/10 15:25:52;;;;;;;5.65;3.15;;;28.50;48.60;;;;;;10081782;28;20457;-64
2022/05/10 15:30:42;;;;;;;;;;;28.70;48.40;;;;;;10086613;28;20020;-64
2022/05/10 15:35:33;;;;;;;4.68;3.42;;;28.70;48.20;;;;;;10089953;28;19917;-64
2022/05/10 15:40:24;;;;;;;3.78;3.15;;;28.70;48.40;;;;;;10088520;28;20367;-64
2022/05/10 15:45:14;;;;;;;4.70;3.83;;;28.60;48.30;;;;;;10087005;28;20116;-66
2022/05/10 15:50:08;;;;;;;3.92;3.40;;;28.40;48.80;;;;;;10088920;28;20066;-62
2022/05/10 15:54:59;;;;;;;4.70;4.30;;;28.50;48.60;;;;;;10090062;28;20045;-64
2022/05/10 15:59:51;;;;;;;4.72;3.60;;;28.50;48.80;;;;;;10086618;28;20450;-63
2022/05/10 16:04:42;;;;;;;5.72;3.88;;;28.60;49.10;;;;;;10090030;28;20032;-60
2022/05/10 16:09:33;;;;;;;5.13;3.47;;;29.30;49.00;;;;;;10085764;28;20537;-64
2022/05/10 16:14:25;;;;;;;4.85;3.83;;;29.70;48.90;;;;;;10089525;28;20048;-69
2022/05/10 16:19:15;;;;;;;5.35;4.15;;;30.50;49.00;;;;;;10088745;28;20442;-66
2022/05/10 16:24:07;;;;;;;5.57;3.90;;;30.90;48.50;;;;;;10087466;28;20084;-67
2022/05/10 16:34:08;;;;;;;5.60;3.90;;;29.10;50.70;;;;;;10086300;28;20056;-64
2022/05/10 16:38:59;;;;;;;6.13;4.05;;;28.70;50.90;;;;;;10091062;28;20507;-68
2022/05/10 16:43:50;;;;;;;7.22;3.90;;;28.50;51.10;;;;;;10086962;28;20024;-66
2022/05/10 16:48:42;;;;;;;4.43;3.58;;;28.30;51.10;;;;;;10092531;28;20031;-62
2022/05/10 16:53:33;;;;;;;4.15;3.47;;;27.90;51.20;;;;;;10096184;28;20166;-58
2022/05/10 16:58:24;;;;;;;4.30;3.38;;;27.60;51.30;;;;;;10093207;28;20032;-64
2022/05/10 17:03:15;;;;;;;4.85;4.00;;;27.40;51.50;;;;;;10093813;28;20009;-64
2022/05/10 17:08:06;;;;;;;4.82;3.60;;;27.20;51.50;;;;;;10092187;28;20045;-70
2022/05/10 17:12:57;;;;;;;5.88;4.20;;;27.10;51.50;;;;;;10096053;28;20025;-56
2022/05/10 17:17:48;;;;;;;4.60;4.07;;;27.00;51.70;;;;;;10094360;28;20033;-65
2022/05/10 17:22:39;;;;;;;4.57;3.95;;;27.00;51.80;;;;;;10086203;28;20049;-70
2022/05/10 17:27:34;;;;;;;4.95;3.80;;;26.90;51.90;;;;;;10069890;28;20033;-64
2022/05/10 17:32:25;;;;;;;7.40;3.80;;;26.90;52.00;;;;;;10094990;28;20037;-65
2022/05/10 17:37:17;;;;;;;7.97;4.82;;;26.90;51.90;;;;;;10092462;28;20333;-62
2022/05/10 17:42:07;;;;;;;5.28;3.90;;;26.70;52.00;;;;;;10095560;28;20037;-64
2022/05/10 17:46:58;;;;;;;4.03;3.45;;;26.70;52.00;;;;;;10091192;28;20024;-65
2022/05/10 17:51:49;;;;;;;4.43;2.95;;;26.60;52.00;;;;;;10058979;28;20029;-66
2022/05/10 17:56:41;;;;;;;5.30;4.18;;;26.50;51.90;;;;;;10093257;28;20071;-65
2022/05/10 18:01:32;;;;;;;3.08;2.72;;;26.60;51.80;;;;;;10092447;28;20013;-64
2022/05/10 18:06:23;;;;;;;5.78;3.17;;;26.60;51.70;;;;;;10089914;28;20020;-65
2022/05/10 18:11:19;;;;;;;4.78;3.80;;;26.60;51.50;;;;;;10081486;28;20028;-65
2022/05/10 18:16:10;;;;;;;4.00;3.60;;;26.60;51.40;;;;;;10075882;28;20037;-64
2022/05/10 18:21:02;;;;;;;6.03;3.58;;;26.60;51.30;;;;;;10078101;28;20379;-65
2022/05/10 18:25:57;;;;;;;4.72;3.17;;;26.50;51.30;;;;;;10092721;28;20151;-66
2022/05/10 18:30:48;;;;;;;4.85;3.30;;;26.40;51.20;;;;;;10074863;28;20025;-67
2022/05/10 18:35:41;;;;;;;4.50;2.88;;;26.30;51.30;;;;;;10089013;28;20040;-67
2022/05/10 18:40:31;;;;;;;6.13;4.13;;;26.20;51.30;;;;;;10090751;28;20028;-67
2022/05/10 18:45:24;;;;;;;5.03;3.40;;;26.10;51.30;;;;;;10068216;28;20049;-68
2022/05/10 18:50:15;;;;;;;5.32;2.80;;;26.00;51.30;;;;;;10074049;28;20448;-64
2022/05/10 18:55:06;;;;;;;5.18;3.50;;;25.90;51.30;;;;;;10085849;28;20065;-65
2022/05/10 18:59:57;;;;;;;3.47;2.60;;;25.70;51.30;;;;;;10091397;28;20032;-68
2022/05/10 19:04:47;;;;;;;4.70;3.55;;;25.70;51.30;;;;;;10090156;28;20123;-63
2022/05/10 19:09:38;;;;;;;3.67;2.53;;;25.60;51.20;;;;;;10079546;28;20372;-68
2022/05/10 19:14:30;;;;;;;4.45;2.67;;;25.50;51.20;;;;;;10086239;28;20041;-67
2022/05/10 19:19:21;;;;;;;6.57;3.33;;;25.40;51.90;;;;;;10095189;28;20051;-69
2022/05/10 19:24:12;;;;;;;3.80;2.90;;;25.40;51.20;;;;;;10077927;28;20540;-66
2022/05/10 19:29:03;;;;;;;3.83;2.85;;;25.20;51.20;;;;;;10090710;28;20233;-66
2022/05/10 19:33:54;;;;;;;3.97;2.30;;;25.20;51.40;;;;;;10088782;28;20256;-66
2022/05/10 19:38:45;;;;;;;3.20;2.05;;;25.10;51.40;;;;;;10072670;28;20022;-67
2022/05/10 19:43:37;;;;;;;4.75;2.80;;;25.10;51.30;;;;;;10066522;28;20499;-68
2022/05/10 19:48:27;;;;;;;3.53;2.95;;;25.00;51.40;;;;;;10075484;28;20120;-66
2022/05/10 19:53:18;;;;;;;5.10;2.55;;;24.90;51.50;;;;;;10080230;28;20132;-66
2022/05/10 19:58:09;;;;;;;2.90;2.47;;;24.80;51.50;;;;;;10095348;28;20440;-63
2022/05/10 20:08:11;;;;;;;3.45;3.15;;;24.50;51.90;;;;;;10078554;28;20159;-62
2022/05/10 20:13:03;;;;;;;4.05;2.55;;;24.40;52.10;;;;;;10081209;28;20479;-63
2022/05/10 20:17:56;;;;;;;3.05;2.47;;;24.30;52.20;;;;;;10077734;28;20462;-63
2022/05/10 20:22:47;;;;;;;2.45;2.25;;;24.30;52.30;;;;;;10083947;28;20052;-63
2022/05/10 20:27:38;;;;;;;3.78;2.30;;;24.20;52.50;;;;;;10100545;28;20021;-63
2022/05/10 20:32:29;;;;;;;4.65;2.90;;;24.10;52.70;;;;;;10100908;28;20059;-62
2022/05/10 20:37:20;;;;;;;5.10;3.00;;;23.90;53.10;;;;;;10100854;28;20112;-62
2022/05/10 20:42:10;;;;;;;3.30;2.25;;;23.90;53.40;;;;;;10090790;28;20194;-65
2022/05/10 20:47:01;;;;;;;3.75;2.25;;;23.80;53.40;;;;;;10096962;28;20025;-64
2022/05/10 20:51:52;;;;;;;4.35;3.00;;;23.80;53.50;;;;;;10078857;28;20037;-65
2022/05/10 20:56:43;;;;;;;4.10;2.75;;;23.70;53.70;;;;;;10094993;28;20519;-65
2022/05/10 21:01:34;;;;;;;4.18;2.53;;;23.70;53.90;;;;;;10093070;28;20028;-62
2022/05/10 21:08:27;;;;;;;3.42;2.70;;;23.60;54.00;;;;;;10084237;28;20149;-64
2022/05/10 21:11:35;;;;;;;5.55;2.53;;;23.60;54.10;;;;;;10080912;28;20025;-62
2022/05/10 21:16:26;;;;;;;4.45;2.83;;;23.50;54.30;;;;;;10074968;28;20045;-63
2022/05/10 21:21:17;;;;;;;4.07;2.60;;;23.50;54.40;;;;;;10085152;28;20097;-65
2022/05/10 21:26:12;;;;;;;3.28;2.33;;;23.50;54.40;;;;;;10079295;28;20045;-63
2022/05/10 21:31:14;;;;;;;;;;;23.40;54.50;;;;;;10093893;28;20061;-63
2022/05/10 21:36:05;;;;;;;5.47;2.53;;;23.40;54.60;;;;;;10092107;28;19921;-65
2022/05/10 21:40:56;;;;;;;4.63;3.13;;;23.40;54.50;;;;;;10071326;28;20021;-63
2022/05/10 21:45:53;;;;;;;3.80;2.00;;;23.30;54.60;;;;;;10064396;28;20108;-65
2022/05/10 21:50:52;;;;;;;6.63;3.65;;;23.20;55.10;;;;;;10084446;28;20259;-63
2022/05/10 21:55:43;;;;;;;2.97;2.50;;;23.10;55.30;;;;;;10079910;28;20102;-63
2022/05/10 22:00:38;;;;;;;3.72;2.45;;;23.00;55.50;;;;;;10088467;28;20033;-62
2022/05/10 22:05:30;;;;;;;4.10;2.67;;;22.90;55.70;;;;;;10076819;28;20131;-63
2022/05/10 22:10:21;;;;;;;3.13;2.80;;;22.80;55.80;;;;;;10077578;28;20043;-64
2022/05/10 22:15:13;;;;;;;4.18;2.75;;;22.70;56.20;;;;;;10071588;28;20037;-65
2022/05/10 22:20:05;;;;;;;3.58;2.85;;;22.60;56.40;;;;;;10083011;28;20025;-61
2022/05/10 22:24:56;;;;;;;5.28;2.90;;;22.60;56.70;;;;;;10067195;28;20312;-63
2022/05/10 22:29:46;;;;;;;4.75;3.67;;;22.50;57.10;;;;;;10069425;28;20271;-62
2022/05/10 22:34:37;;;;;;;5.15;2.80;;;22.30;57.60;;;;;;10087887;28;20045;-62
2022/05/10 22:39:28;;;;;;;5.55;3.45;;;22.20;58.00;;;;;;10070795;28;20033;-62
2022/05/10 22:44:18;;;;;;;6.22;3.67;;;22.20;58.20;;;;;;10064397;28;20028;-63
2022/05/10 22:49:09;;;;;;;4.70;2.78;;;22.10;58.50;;;;;;10069908;28;20044;-61
2022/05/10 22:54:00;;;;;;;3.13;2.63;;;22.00;58.90;;;;;;10091762;28;20039;-61
2022/05/10 22:58:50;;;;;;;4.30;2.60;;;21.90;59.20;;;;;;10093368;28;20112;-63
2022/05/10 23:03:41;;;;;;;4.30;2.95;;;21.90;59.60;;;;;;10091063;28;20103;-63
2022/05/10 23:08:33;;;;;;;4.07;3.60;;;21.80;59.80;;;;;;10089347;28;20116;-65
2022/05/10 23:13:23;;;;;;;3.97;2.72;;;21.70;60.00;;;;;;10086489;28;20028;-62
2022/05/10 23:18:15;;;;;;;3.55;2.80;;;21.70;60.20;;;;;;10092234;28;20390;-64
2022/05/10 23:23:05;;;;;;;3.92;2.75;;;21.70;60.50;;;;;;10091175;28;20147;-63
2022/05/10 23:28:00;;;;;;;5.18;2.97;;;21.60;60.90;;;;;;10075256;28;20574;-63
2022/05/10 23:32:51;;;;;;;3.72;2.85;;;21.60;61.20;;;;;;10091528;28;20115;-62
2022/05/10 23:37:42;;;;;;;4.50;3.15;;;21.50;61.60;;;;;;10089618;28;20507;-61
2022/05/10 23:44:07;;;;;;;6.00;3.95;;;21.40;62.00;;;;;;10089988;28;20154;-64
2022/05/10 23:47:46;;;;;;;5.85;3.30;;;21.40;62.50;;;;;;10090024;28;20429;-63
2022/05/10 23:52:36;;;;;;;6.57;3.83;;;21.30;62.90;;;;;;10090358;28;20146;-62
2022/05/10 23:57:27;;;;;;;6.70;4.40;;;21.20;63.40;;;;;;10085615;28;20116;-61
